Kamishli, Syria
Current Conditions -  °F | °C
As of 7:50 PM on Friday 19 Dec 2014 (Local Time) from LTCR Reporting Station
Broken Clouds Broken Clouds  
Wind Chill: 43°   Ceiling: 10000
Heat Index: 48°   Visibility: 6mi
Dew Point: 41°   Wind: 13mph
Humidity: 76%   Direction: 30°NNE
Pressure: 30.15"   Gusts: NA
Location:  37.05°N, 41.22°E
Report Text: LTCR 191650Z 03011KT 9999 SCT040 BKN100 09/05 Q1021 RERA
Loading
Personal Weather Stations






























Interactive Weather Map New forecast layout! Learn more

10-Day Weather Forecast

Advertisements
Track Severe Weather on mobile